createdAt,value
2019-05-20T00:01:45.381Z,30.47
2019-05-20T00:04:13.795Z,32.23
2019-05-20T00:06:42.209Z,30.70
2019-05-20T00:09:10.625Z,31.33
2019-05-20T00:11:39.033Z,28.97
2019-05-20T00:14:07.518Z,25.63
2019-05-20T00:16:36.225Z,25.80
2019-05-20T00:19:04.651Z,27.20
2019-05-20T00:21:33.145Z,23.03
2019-05-20T00:24:01.565Z,31.50
2019-05-20T00:26:29.979Z,31.50
2019-05-20T00:28:58.730Z,27.10
2019-05-20T00:31:27.149Z,27.93
2019-05-20T00:33:55.562Z,31.70
2019-05-20T00:36:23.968Z,29.67
2019-05-20T00:39:10.607Z,28.90
2019-05-20T00:41:38.997Z,26.60
2019-05-20T00:44:07.445Z,29.17
2019-05-20T00:46:35.838Z,28.10
2019-05-20T00:49:04.331Z,27.03
2019-05-20T00:51:32.748Z,33.27
2019-05-20T00:54:01.183Z,33.13
2019-05-20T00:56:29.586Z,29.97
2019-05-20T00:58:58.008Z,28.73
2019-05-20T01:01:26.451Z,25.80
2019-05-20T01:03:54.878Z,31.27
2019-05-20T01:06:23.300Z,30.03
2019-05-20T01:08:51.693Z,33.27
2019-05-20T01:11:20.187Z,34.80
2019-05-20T01:13:48.891Z,34.80
2019-05-20T01:16:17.310Z,31.87
2019-05-20T01:18:45.736Z,29.27
2019-05-20T01:21:14.137Z,29.23
2019-05-20T01:23:42.557Z,33.50
2019-05-20T01:26:10.961Z,36.17
2019-05-20T01:28:39.355Z,33.47
2019-05-20T01:31:07.803Z,34.87
2019-05-20T01:33:36.205Z,38.27
2019-05-20T01:36:05.743Z,35.40
2019-05-20T01:38:34.518Z,33.20
2019-05-20T01:41:02.926Z,32.57
2019-05-20T01:43:31.367Z,33.10
2019-05-20T01:45:59.785Z,33.93
2019-05-20T01:48:28.188Z,34.87
2019-05-20T01:50:56.622Z,33.40
2019-05-20T01:53:25.025Z,34.60
2019-05-20T01:55:53.435Z,36.40
2019-05-20T01:58:21.862Z,34.20
2019-05-20T02:00:50.268Z,35.90
2019-05-20T02:03:31.022Z,34.10
2019-05-20T02:05:48.970Z,33.73
2019-05-20T02:08:17.621Z,29.87
2019-05-20T02:10:46.056Z,29.43
2019-05-20T02:13:14.459Z,32.70
2019-05-20T02:15:50.740Z,30.90
2019-05-20T02:18:19.419Z,31.40
2019-05-20T02:20:47.841Z,31.03
2019-05-20T02:23:16.833Z,31.07
2019-05-20T02:25:47.355Z,29.33
2019-05-20T02:28:15.817Z,30.53
2019-05-20T02:30:44.318Z,36.50
2019-05-20T02:33:13.070Z,30.47
2019-05-20T02:35:41.756Z,31.70
2019-05-20T02:38:10.157Z,32.33
2019-05-20T02:40:38.602Z,31.67
2019-05-20T02:43:07.019Z,30.90
2019-05-20T02:45:35.447Z,31.67
2019-05-20T02:48:03.914Z,30.70
2019-05-20T02:50:32.337Z,29.90
2019-05-20T02:53:00.738Z,30.17
2019-05-20T02:55:29.140Z,31.20
2019-05-20T02:57:57.582Z,27.73
2019-05-20T03:00:25.997Z,32.60
2019-05-20T03:02:54.431Z,34.27
2019-05-20T03:05:22.846Z,31.47
2019-05-20T03:07:51.269Z,34.23
2019-05-20T03:10:19.705Z,33.87
2019-05-20T03:12:48.117Z,28.17
2019-05-20T03:15:16.604Z,39.63
2019-05-20T03:17:45.035Z,34.93
2019-05-20T03:20:13.577Z,32.33
2019-05-20T03:22:42.151Z,29.33
2019-05-20T03:25:10.797Z,36.13
2019-05-20T03:27:39.286Z,31.70
2019-05-20T03:30:09.435Z,30.25
2019-05-20T03:32:37.866Z,35.33
2019-05-20T03:35:07.661Z,33.87
2019-05-20T03:37:36.099Z,38.27
2019-05-20T03:40:07.706Z,36.37
2019-05-20T03:42:36.197Z,34.83
2019-05-20T03:45:05.548Z,35.80
2019-05-20T03:47:33.988Z,38.40
2019-05-20T03:50:02.361Z,37.90
2019-05-20T03:52:30.803Z,34.37
2019-05-20T03:54:59.208Z,33.10
2019-05-20T03:57:27.619Z,34.00
2019-05-20T03:59:56.026Z,29.80
2019-05-20T04:02:24.453Z,33.90
2019-05-20T04:05:02.020Z,36.80
2019-05-20T04:07:23.274Z,39.53
2019-05-20T04:09:51.911Z,35.30
2019-05-20T04:12:20.594Z,40.67
2019-05-20T04:14:49.021Z,38.93
2019-05-20T04:17:17.424Z,38.77
2019-05-20T04:19:45.858Z,38.27
2019-05-20T04:22:14.258Z,43.47
2019-05-20T04:24:42.674Z,37.10
2019-05-20T04:27:11.101Z,40.73
2019-05-20T04:29:39.511Z,37.20
2019-05-20T04:32:07.913Z,36.30
2019-05-20T04:34:36.410Z,43.73
2019-05-20T04:37:04.870Z,38.37
2019-05-20T04:39:33.298Z,38.03
2019-05-20T04:42:05.977Z,35.87
2019-05-20T04:44:31.847Z,49.73
2019-05-20T04:47:00.266Z,46.98
2019-05-20T04:49:28.698Z,44.27
2019-05-20T04:51:57.087Z,48.33
2019-05-20T04:54:25.540Z,45.17
2019-05-20T04:56:53.915Z,50.23
2019-05-20T04:59:22.588Z,42.80
2019-05-20T05:01:51.014Z,46.70
2019-05-20T05:04:19.404Z,45.87
2019-05-20T05:06:47.840Z,46.43
2019-05-20T05:09:16.296Z,52.17
2019-05-20T05:11:44.695Z,51.97
2019-05-20T05:14:13.177Z,47.60
2019-05-20T05:16:41.618Z,52.07
2019-05-20T05:19:10.028Z,52.37
2019-05-20T05:21:38.518Z,52.87
2019-05-20T05:24:06.942Z,51.13
2019-05-20T05:26:35.422Z,53.20
2019-05-20T05:29:04.202Z,49.00
2019-05-20T05:31:32.652Z,54.80
2019-05-20T05:34:01.053Z,52.20
2019-05-20T05:36:29.458Z,50.63
2019-05-20T05:38:57.878Z,49.67
2019-05-20T05:41:26.365Z,52.10
2019-05-20T05:43:54.762Z,48.43
2019-05-20T05:46:23.199Z,53.17
2019-05-20T05:48:51.611Z,51.80
2019-05-20T05:51:21.201Z,43.07
2019-05-20T05:53:49.593Z,51.83
2019-05-20T05:56:18.031Z,43.23
2019-05-20T05:58:46.535Z,50.43
2019-05-20T06:01:14.944Z,42.90
2019-05-20T06:03:43.341Z,45.90
2019-05-20T06:06:13.325Z,44.60
2019-05-20T06:08:42.263Z,45.90
2019-05-20T06:11:10.690Z,46.53
2019-05-20T06:13:39.090Z,45.43
2019-05-20T06:16:07.510Z,42.17
2019-05-20T06:18:35.912Z,40.07
2019-05-20T06:21:04.699Z,40.57
2019-05-20T06:23:33.335Z,42.40
2019-05-20T06:26:01.785Z,45.20
2019-05-20T06:28:30.213Z,43.87
2019-05-20T06:30:58.651Z,42.80
2019-05-20T06:33:27.205Z,42.73
2019-05-20T06:35:55.615Z,38.63
2019-05-20T06:38:35.339Z,39.60
2019-05-20T06:41:05.624Z,38.20
2019-05-20T06:43:34.097Z,38.87
2019-05-20T06:46:02.526Z,35.30
2019-05-20T06:48:30.917Z,43.87
2019-05-20T06:50:59.348Z,40.80
2019-05-20T06:53:28.126Z,41.73
2019-05-20T06:55:56.560Z,39.80
2019-05-20T06:58:24.958Z,56.43
2019-05-20T07:00:53.393Z,38.83
2019-05-20T07:03:21.844Z,37.93
2019-05-20T07:05:50.252Z,35.83
2019-05-20T07:08:19.227Z,39.23
2019-05-20T07:10:48.413Z,34.37
2019-05-20T07:13:17.487Z,38.97
2019-05-20T07:15:46.502Z,35.53
2019-05-20T07:18:14.902Z,35.67
2019-05-20T07:20:44.136Z,38.57
2019-05-20T07:23:12.726Z,36.43
2019-05-20T07:25:41.189Z,34.17
2019-05-20T07:28:09.798Z,37.37
2019-05-20T07:30:38.557Z,34.57
2019-05-20T07:33:08.120Z,33.87
2019-05-20T07:35:37.402Z,36.57
2019-05-20T07:38:06.832Z,35.37
2019-05-20T07:40:36.289Z,33.53
2019-05-20T07:43:05.505Z,33.73
2019-05-20T07:45:35.327Z,41.23
2019-05-20T07:48:04.779Z,34.97
2019-05-20T07:50:36.083Z,36.97
2019-05-20T07:53:06.418Z,34.53
2019-05-20T07:55:37.894Z,37.63
2019-05-20T07:58:08.466Z,35.33
2019-05-20T08:00:37.277Z,34.73
2019-05-20T08:05:47.353Z,32.03
2019-05-20T08:08:15.840Z,32.73
2019-05-20T08:10:44.251Z,30.40
2019-05-20T08:13:12.748Z,34.17
2019-05-20T08:15:41.158Z,34.73
2019-05-20T08:18:09.816Z,32.20
2019-05-20T08:20:38.271Z,32.90
2019-05-20T08:23:06.676Z,33.37
2019-05-20T08:25:35.377Z,31.87
2019-05-20T08:28:03.851Z,34.90
2019-05-20T08:30:37.265Z,33.53
2019-05-20T08:34:56.354Z,31.33
2019-05-20T08:37:24.752Z,29.97
2019-05-20T08:39:53.177Z,28.57
2019-05-20T08:42:21.581Z,34.90
2019-05-20T08:44:49.996Z,39.63
2019-05-20T08:47:18.413Z,32.80
2019-05-20T08:49:47.079Z,30.30
2019-05-20T08:52:15.664Z,33.53
2019-05-20T08:54:46.769Z,30.30
2019-05-20T08:57:15.193Z,33.40
2019-05-20T08:59:43.586Z,39.33
2019-05-20T09:02:11.988Z,36.67
2019-05-20T09:04:40.406Z,30.50
2019-05-20T09:07:08.792Z,30.30
2019-05-20T09:09:37.272Z,28.37
2019-05-20T09:12:05.911Z,28.10
2019-05-20T09:14:34.308Z,28.10
2019-05-20T09:17:03.036Z,28.37
2019-05-20T09:19:31.427Z,28.50
2019-05-20T09:21:59.833Z,29.23
2019-05-20T09:24:28.259Z,29.87
2019-05-20T09:26:56.659Z,27.33
2019-05-20T09:29:25.424Z,28.53
2019-05-20T09:31:54.167Z,28.17
2019-05-20T09:34:22.865Z,29.40
2019-05-20T09:36:51.333Z,26.67
2019-05-20T09:39:19.736Z,27.97
2019-05-20T09:41:48.167Z,28.60
2019-05-20T09:44:16.562Z,29.83
2019-05-20T09:46:45.654Z,29.10
2019-05-20T09:49:14.074Z,26.93
2019-05-20T09:51:42.566Z,25.90
2019-05-20T09:54:10.940Z,27.17
2019-05-20T09:56:39.340Z,26.10
2019-05-20T09:59:07.772Z,31.33
2019-05-20T10:01:39.861Z,29.87
2019-05-20T10:04:06.357Z,26.10
2019-05-20T10:06:34.779Z,26.77
2019-05-20T10:09:03.857Z,28.37
2019-05-20T10:11:32.276Z,25.80
2019-05-20T10:14:00.676Z,30.47
2019-05-20T10:16:29.092Z,23.20
2019-05-20T10:18:57.490Z,23.53
2019-05-20T10:21:25.899Z,28.13
2019-05-20T10:23:54.313Z,27.63
2019-05-20T10:26:22.740Z,26.60
2019-05-20T10:28:51.166Z,26.27
2019-05-20T10:31:19.564Z,26.73
2019-05-20T10:33:48.042Z,24.53
2019-05-20T10:36:16.457Z,25.10
2019-05-20T10:38:57.343Z,22.00
2019-05-20T10:41:15.017Z,20.57
2019-05-20T10:43:43.409Z,21.93
2019-05-20T10:46:11.895Z,24.57
2019-05-20T10:48:40.299Z,25.57
2019-05-20T10:51:10.479Z,26.43
2019-05-20T10:53:38.954Z,20.83
2019-05-20T10:56:07.406Z,20.73
2019-05-20T10:58:35.820Z,20.40
2019-05-20T11:01:04.245Z,19.77
2019-05-20T11:03:33.000Z,18.37
2019-05-20T11:06:01.400Z,22.97
2019-05-20T11:08:29.818Z,19.83
2019-05-20T11:10:58.222Z,19.40
2019-05-20T11:13:26.711Z,19.03
2019-05-20T11:15:55.131Z,17.10
2019-05-20T11:18:23.548Z,19.27
2019-05-20T11:20:51.948Z,16.10
2019-05-20T11:23:20.376Z,16.10
2019-05-20T11:25:49.121Z,14.17
2019-05-20T11:28:17.552Z,16.00
2019-05-20T11:30:46.094Z,13.87
2019-05-20T11:33:14.515Z,14.43
2019-05-20T11:35:43.089Z,13.73
2019-05-20T11:38:11.714Z,12.70
2019-05-20T11:40:40.084Z,11.07
2019-05-20T11:43:08.481Z,13.07
2019-05-20T11:45:36.900Z,12.17
2019-05-20T11:48:05.307Z,9.37
2019-05-20T11:50:33.702Z,12.33
2019-05-20T11:53:02.201Z,9.27
2019-05-20T11:55:30.643Z,6.97
2019-05-20T11:58:14.618Z,9.63
2019-05-20T12:00:29.212Z,9.97
2019-05-20T12:02:57.638Z,10.67
2019-05-20T12:05:26.034Z,6.93
2019-05-20T12:07:54.441Z,7.13
2019-05-20T12:10:23.173Z,7.53
2019-05-20T12:12:51.666Z,7.53
2019-05-20T12:15:21.692Z,8.40
2019-05-20T12:17:50.085Z,6.57
2019-05-20T12:20:18.638Z,7.53
2019-05-20T12:22:47.103Z,6.60
2019-05-20T12:25:15.633Z,7.17
2019-05-20T12:27:43.986Z,7.23
2019-05-20T12:30:12.865Z,9.43
2019-05-20T12:32:41.233Z,7.47
2019-05-20T12:35:11.256Z,9.27
2019-05-20T12:37:39.650Z,8.33
2019-05-20T12:40:08.833Z,7.53
2019-05-20T12:42:37.647Z,9.13
2019-05-20T12:45:08.114Z,7.37
2019-05-20T12:47:36.599Z,8.40
2019-05-20T12:50:06.453Z,8.13
2019-05-20T12:52:34.856Z,9.50
2019-05-20T12:55:08.561Z,7.90
2019-05-20T12:57:33.560Z,9.33
2019-05-20T13:00:01.984Z,8.50
2019-05-20T13:02:30.406Z,9.40
2019-05-20T13:04:58.799Z,9.77
2019-05-20T13:07:27.265Z,9.77
2019-05-20T13:09:55.681Z,10.10
2019-05-20T13:12:24.072Z,10.27
2019-05-20T13:14:52.469Z,11.67
2019-05-20T13:17:20.886Z,12.40
2019-05-20T13:19:49.371Z,11.80
2019-05-20T13:22:18.069Z,10.17
2019-05-20T13:24:46.477Z,9.43
2019-05-20T13:27:14.892Z,11.23
2019-05-20T13:29:43.305Z,10.17
2019-05-20T13:32:11.695Z,9.27
2019-05-20T13:34:40.113Z,11.27
2019-05-20T13:37:08.512Z,8.60
2019-05-20T13:39:38.566Z,12.60
2019-05-20T13:42:06.968Z,10.27
2019-05-20T13:44:35.363Z,10.67
2019-05-20T13:47:03.976Z,14.73
2019-05-20T13:49:32.377Z,11.93
2019-05-20T13:52:01.336Z,12.90
2019-05-20T13:54:29.860Z,12.17
2019-05-20T13:56:58.290Z,11.83
2019-05-20T13:59:26.696Z,11.87
2019-05-20T14:01:55.094Z,16.03
2019-05-20T14:04:23.579Z,20.93
2019-05-20T14:06:52.005Z,14.80
2019-05-20T14:09:20.395Z,20.30
2019-05-20T14:11:48.803Z,18.00
2019-05-20T14:14:17.469Z,20.93
2019-05-20T14:16:45.875Z,19.67
2019-05-20T14:19:14.297Z,19.87
2019-05-20T14:21:42.716Z,21.80
2019-05-20T14:24:11.119Z,21.57
2019-05-20T14:26:39.567Z,22.23
2019-05-20T14:29:07.943Z,21.47
2019-05-20T14:31:36.350Z,26.87
2019-05-20T14:34:04.771Z,29.47
2019-05-20T14:36:39.977Z,24.43
2019-05-20T14:39:05.272Z,30.70
2019-05-20T14:41:33.682Z,29.03
2019-05-20T14:44:02.195Z,29.17
2019-05-20T14:46:30.578Z,30.37
2019-05-20T14:49:02.167Z,29.85
2019-05-20T14:51:29.154Z,27.33
2019-05-20T14:53:57.535Z,27.37
2019-05-20T14:56:25.967Z,28.60
2019-05-20T14:58:55.748Z,29.60
2019-05-20T15:01:24.304Z,25.87
2019-05-20T15:03:52.725Z,27.73
2019-05-20T15:06:21.118Z,25.23
2019-05-20T15:08:49.553Z,22.17
2019-05-20T15:11:17.953Z,22.30
2019-05-20T15:13:46.389Z,25.53
2019-05-20T15:16:14.772Z,28.27
2019-05-20T15:18:43.196Z,30.10
2019-05-20T15:21:11.597Z,24.63
2019-05-20T15:23:40.086Z,26.50
2019-05-20T15:26:08.430Z,21.57
2019-05-20T15:28:36.887Z,27.90
2019-05-20T15:31:05.314Z,33.07
2019-05-20T15:33:33.720Z,32.87
2019-05-20T15:36:02.159Z,35.20
2019-05-20T15:38:30.571Z,34.77
2019-05-20T15:40:58.978Z,35.33
2019-05-20T15:43:27.387Z,34.83
2019-05-20T15:45:55.791Z,28.57
2019-05-20T15:48:24.216Z,33.37
2019-05-20T15:50:52.609Z,40.87
2019-05-20T15:53:21.007Z,37.33
2019-05-20T15:55:49.453Z,37.00
2019-05-20T15:58:17.896Z,30.80
2019-05-20T16:00:46.295Z,41.93
2019-05-20T16:03:14.734Z,38.23
2019-05-20T16:05:43.147Z,34.90
2019-05-20T16:08:11.563Z,40.03
2019-05-20T16:10:40.325Z,44.47
2019-05-20T16:13:08.738Z,37.13
2019-05-20T16:15:37.137Z,42.67
2019-05-20T16:18:05.551Z,39.77
2019-05-20T16:20:33.955Z,38.17
2019-05-20T16:23:02.670Z,40.87
2019-05-20T16:25:31.460Z,39.50
2019-05-20T16:27:59.847Z,39.03
2019-05-20T16:30:28.247Z,34.83
2019-05-20T16:32:56.680Z,35.87
2019-05-20T16:35:25.078Z,38.03
2019-05-20T16:37:53.477Z,37.70
2019-05-20T16:40:21.889Z,33.03
2019-05-20T16:42:50.298Z,36.53
2019-05-20T16:45:19.557Z,36.63
2019-05-20T16:47:48.219Z,37.33
2019-05-20T16:50:18.352Z,36.80
2019-05-20T16:52:46.754Z,30.40
2019-05-20T16:55:15.888Z,34.43
2019-05-20T16:57:44.302Z,27.77
2019-05-20T17:00:29.952Z,29.65
2019-05-20T17:02:43.531Z,27.40
2019-05-20T17:05:12.083Z,26.80
2019-05-20T17:07:40.502Z,24.07
2019-05-20T17:10:09.147Z,23.30
2019-05-20T17:12:37.585Z,23.80
2019-05-20T17:15:06.241Z,20.53
2019-05-20T17:17:34.632Z,16.40
2019-05-20T17:20:03.272Z,19.17
2019-05-20T17:22:31.708Z,19.37
2019-05-20T17:25:00.122Z,20.33
2019-05-20T17:27:28.595Z,17.43
2019-05-20T17:29:57.016Z,17.53
2019-05-20T17:32:25.409Z,19.93
2019-05-20T17:34:53.823Z,19.07
2019-05-20T17:37:22.251Z,16.60
2019-05-20T17:39:50.660Z,19.33
2019-05-20T17:42:19.169Z,18.20
2019-05-20T17:44:47.597Z,18.30
2019-05-20T17:47:16.081Z,20.07
2019-05-20T17:49:44.479Z,17.27
2019-05-20T17:52:12.906Z,20.67
2019-05-20T17:54:41.303Z,18.90
2019-05-20T17:57:09.704Z,17.03
2019-05-20T17:59:38.137Z,18.10
2019-05-20T18:02:08.256Z,16.93
2019-05-20T18:04:37.011Z,18.43
2019-05-20T18:07:05.508Z,17.83
2019-05-20T18:09:35.548Z,18.53
2019-05-20T18:12:04.033Z,21.77
2019-05-20T18:14:32.438Z,21.80
2019-05-20T18:17:01.097Z,20.00
2019-05-20T18:19:29.492Z,22.33
2019-05-20T18:21:57.908Z,20.67
2019-05-20T18:24:26.314Z,22.40
2019-05-20T18:26:54.723Z,23.20
2019-05-20T18:29:23.130Z,18.57
2019-05-20T18:31:51.689Z,23.73
2019-05-20T18:34:20.302Z,21.80
2019-05-20T18:36:48.725Z,22.73
2019-05-20T18:39:17.128Z,21.60
2019-05-20T18:41:45.549Z,23.77
2019-05-20T18:44:13.959Z,21.47
2019-05-20T18:46:42.347Z,20.03
2019-05-20T18:49:11.015Z,17.73
2019-05-20T18:51:39.430Z,18.93
2019-05-20T18:54:09.116Z,18.20
2019-05-20T18:56:37.537Z,20.20
2019-05-20T18:59:05.973Z,18.67
2019-05-20T19:01:46.050Z,20.07
2019-05-20T19:04:04.664Z,20.60
2019-05-20T19:06:33.091Z,20.57
2019-05-20T19:09:01.500Z,18.57
2019-05-20T19:11:29.909Z,20.23
2019-05-20T19:13:58.381Z,18.13
2019-05-20T19:16:26.777Z,18.00
2019-05-20T19:18:55.281Z,17.73
2019-05-20T19:21:23.691Z,19.50
2019-05-20T19:23:52.374Z,17.77
2019-05-20T19:26:24.849Z,17.63
2019-05-20T19:28:51.500Z,17.83
2019-05-20T19:31:19.967Z,18.30
2019-05-20T19:33:48.399Z,20.13
2019-05-20T19:36:16.857Z,16.93
2019-05-20T19:38:45.633Z,17.53
2019-05-20T19:41:14.029Z,17.87
2019-05-20T19:43:42.784Z,17.37
2019-05-20T19:46:11.256Z,17.53
2019-05-20T19:48:39.774Z,17.83
2019-05-20T19:51:08.532Z,17.53
2019-05-20T19:53:36.961Z,16.40
2019-05-20T19:56:05.360Z,18.33
2019-05-20T19:58:33.759Z,13.93
2019-05-20T20:01:02.185Z,19.50
2019-05-20T20:03:30.593Z,20.97
2019-05-20T20:05:59.001Z,24.10
2019-05-20T20:08:27.419Z,19.30
2019-05-20T20:10:56.085Z,19.37
2019-05-20T20:13:24.504Z,22.03
2019-05-20T20:15:52.980Z,26.10
2019-05-20T20:18:21.382Z,21.67
2019-05-20T20:20:49.868Z,28.93
2019-05-20T20:23:18.355Z,28.40
2019-05-20T20:25:46.786Z,20.33
2019-05-20T20:28:15.181Z,26.40
2019-05-20T20:30:43.600Z,28.63
2019-05-20T20:33:12.003Z,26.17
2019-05-20T20:35:40.416Z,26.00
2019-05-20T20:38:08.822Z,29.10
2019-05-20T20:40:37.242Z,28.00
2019-05-20T20:43:05.637Z,30.07
2019-05-20T20:45:34.050Z,27.83
2019-05-20T20:48:02.454Z,25.93
2019-05-20T20:50:30.891Z,26.83
2019-05-20T20:52:59.289Z,26.83
2019-05-20T20:55:27.720Z,25.80
2019-05-20T20:57:56.109Z,24.67
2019-05-20T21:00:24.858Z,26.25
2019-05-20T21:02:54.015Z,33.10
2019-05-20T21:05:22.459Z,28.67
2019-05-20T21:07:51.762Z,27.30
2019-05-20T21:10:20.446Z,28.73
2019-05-20T21:12:48.856Z,29.27
2019-05-20T21:15:17.280Z,32.37
2019-05-20T21:17:45.677Z,32.80
2019-05-20T21:20:14.244Z,31.70
2019-05-20T21:22:42.647Z,30.00
2019-05-20T21:25:11.216Z,28.30
2019-05-20T21:27:39.608Z,25.67
2019-05-20T21:30:09.268Z,27.93
2019-05-20T21:32:37.774Z,30.77
2019-05-20T21:35:06.614Z,23.80
2019-05-20T21:37:35.012Z,26.60
2019-05-20T21:40:03.708Z,25.37
2019-05-20T21:42:32.115Z,24.50
2019-05-20T21:45:00.517Z,22.33
2019-05-20T21:47:28.936Z,17.80
2019-05-20T21:49:57.344Z,20.53
2019-05-20T21:52:25.832Z,19.60
2019-05-20T21:54:54.229Z,17.60
2019-05-20T21:57:22.886Z,18.93
2019-05-20T21:59:51.298Z,19.23
2019-05-20T22:02:19.724Z,18.53
2019-05-20T22:04:48.397Z,19.50
2019-05-20T22:07:16.798Z,18.67
2019-05-20T22:09:46.210Z,18.13
2019-05-20T22:12:14.617Z,17.97
2019-05-20T22:14:43.034Z,16.00
2019-05-20T22:17:11.492Z,16.00
2019-05-20T22:19:39.894Z,16.43
2019-05-20T22:22:18.827Z,14.43
2019-05-20T22:24:47.231Z,15.60
2019-05-20T22:27:15.638Z,16.67
2019-05-20T22:29:44.049Z,14.93
2019-05-20T22:32:12.755Z,16.10
2019-05-20T22:34:52.725Z,17.20
2019-05-20T22:37:11.300Z,13.20
2019-05-20T22:39:39.694Z,14.03
2019-05-20T22:42:08.580Z,12.60
2019-05-20T22:44:36.908Z,12.70
2019-05-20T22:47:05.307Z,13.93
2019-05-20T22:49:33.971Z,14.00
2019-05-20T22:52:02.374Z,13.63
2019-05-20T22:54:30.768Z,13.57
2019-05-20T22:56:59.168Z,14.97
2019-05-20T22:59:27.598Z,14.57
2019-05-20T23:01:56.265Z,12.80
2019-05-20T23:04:24.674Z,13.00
2019-05-20T23:06:53.316Z,13.37
2019-05-20T23:09:21.732Z,15.27
2019-05-20T23:11:50.146Z,12.30
2019-05-20T23:14:18.558Z,14.07
2019-05-20T23:16:46.969Z,14.77
2019-05-20T23:19:15.380Z,10.70
2019-05-20T23:21:43.770Z,9.83
2019-05-20T23:24:12.193Z,11.27
2019-05-20T23:26:40.659Z,11.97
2019-05-20T23:29:09.078Z,10.40
2019-05-20T23:31:37.481Z,10.77
2019-05-20T23:34:12.627Z,8.90
2019-05-20T23:36:36.007Z,12.20
2019-05-20T23:39:07.422Z,11.50
2019-05-20T23:41:36.200Z,11.50
2019-05-20T23:44:04.605Z,10.37
2019-05-20T23:46:32.998Z,10.32
2019-05-20T23:49:01.413Z,9.13
2019-05-20T23:51:29.820Z,11.87
2019-05-20T23:53:58.218Z,9.20
2019-05-20T23:56:26.615Z,12.13
2019-05-20T23:58:55.041Z,12.83
